sensor_id;sensor_type;location;lat;lon;timestamp;temperature;humidity
1383;DHT22;685;47.196;11.880;2023-02-15T00:01:07;2.20;99.90
1383;DHT22;685;47.196;11.880;2023-02-15T00:03:34;1.90;99.90
1383;DHT22;685;47.196;11.880;2023-02-15T00:06:01;1.70;99.90
1383;DHT22;685;47.196;11.880;2023-02-15T00:08:28;1.80;99.90
1383;DHT22;685;47.196;11.880;2023-02-15T00:11:03;1.90;99.90
1383;DHT22;685;47.196;11.880;2023-02-15T00:13:30;2.10;99.90
1383;DHT22;685;47.196;11.880;2023-02-15T00:16:00;2.20;99.90
1383;DHT22;685;47.196;11.880;2023-02-15T00:18:29;2.10;99.90
1383;DHT22;685;47.196;11.880;2023-02-15T00:20:56;2.10;99.90
1383;DHT22;685;47.196;11.880;2023-02-15T00:23:22;2.10;99.90
1383;DHT22;685;47.196;11.880;2023-02-15T00:25:49;2.00;99.90
1383;DHT22;685;47.196;11.880;2023-02-15T00:28:16;1.90;99.90
1383;DHT22;685;47.196;11.880;2023-02-15T00:30:43;1.80;99.90
1383;DHT22;685;47.196;11.880;2023-02-15T00:33:10;1.70;99.90
1383;DHT22;685;47.196;11.880;2023-02-15T00:35:38;1.90;99.90
1383;DHT22;685;47.196;11.880;2023-02-15T00:38:05;2.10;99.90
1383;DHT22;685;47.196;11.880;2023-02-15T00:40:32;2.20;99.90
1383;DHT22;685;47.196;11.880;2023-02-15T00:42:58;2.20;99.90
1383;DHT22;685;47.196;11.880;2023-02-15T00:45:26;2.10;99.90
1383;DHT22;685;47.196;11.880;2023-02-15T00:47:53;2.00;99.90
1383;DHT22;685;47.196;11.880;2023-02-15T00:50:19;1.80;99.90
1383;DHT22;685;47.196;11.880;2023-02-15T00:52:48;1.80;99.90
1383;DHT22;685;47.196;11.880;2023-02-15T00:55:15;1.90;99.90
1383;DHT22;685;47.196;11.880;2023-02-15T00:57:41;1.80;99.90
1383;DHT22;685;47.196;11.880;2023-02-15T01:00:09;1.80;99.90
1383;DHT22;685;47.196;11.880;2023-02-15T01:02:36;1.70;99.90
1383;DHT22;685;47.196;11.880;2023-02-15T01:05:04;1.70;99.90
1383;DHT22;685;47.196;11.880;2023-02-15T01:07:31;1.70;99.90
1383;DHT22;685;47.196;11.880;2023-02-15T01:09:59;1.80;99.90
1383;DHT22;685;47.196;11.880;2023-02-15T01:12:26;1.90;99.90
1383;DHT22;685;47.196;11.880;2023-02-15T01:14:53;1.90;99.90
1383;DHT22;685;47.196;11.880;2023-02-15T01:17:20;1.90;99.90
1383;DHT22;685;47.196;11.880;2023-02-15T01:19:47;1.80;99.90
1383;DHT22;685;47.196;11.880;2023-02-15T01:22:14;1.60;99.90
1383;DHT22;685;47.196;11.880;2023-02-15T01:24:41;1.20;99.90
1383;DHT22;685;47.196;11.880;2023-02-15T01:27:09;1.40;99.90
1383;DHT22;685;47.196;11.880;2023-02-15T01:29:36;1.50;99.90
1383;DHT22;685;47.196;11.880;2023-02-15T01:32:03;1.50;99.90
1383;DHT22;685;47.196;11.880;2023-02-15T01:34:30;1.60;99.90
1383;DHT22;685;47.196;11.880;2023-02-15T01:36:57;1.70;99.90
1383;DHT22;685;47.196;11.880;2023-02-15T01:39:24;1.70;99.90
1383;DHT22;685;47.196;11.880;2023-02-15T01:41:51;1.70;99.90
1383;DHT22;685;47.196;11.880;2023-02-15T01:44:47;1.70;99.90
1383;DHT22;685;47.196;11.880;2023-02-15T01:47:17;1.70;99.90
1383;DHT22;685;47.196;11.880;2023-02-15T01:49:46;1.70;99.90
1383;DHT22;685;47.196;11.880;2023-02-15T01:52:16;1.60;99.90
1383;DHT22;685;47.196;11.880;2023-02-15T01:54:45;1.40;99.90
1383;DHT22;685;47.196;11.880;2023-02-15T01:57:16;1.50;99.90
1383;DHT22;685;47.196;11.880;2023-02-15T01:59:48;1.40;99.90
1383;DHT22;685;47.196;11.880;2023-02-15T02:02:17;1.50;99.90
1383;DHT22;685;47.196;11.880;2023-02-15T02:04:49;1.30;99.90
1383;DHT22;685;47.196;11.880;2023-02-15T02:07:19;1.40;99.90
1383;DHT22;685;47.196;11.880;2023-02-15T02:09:47;1.50;99.90
1383;DHT22;685;47.196;11.880;2023-02-15T02:12:15;1.30;99.90
1383;DHT22;685;47.196;11.880;2023-02-15T02:14:43;1.30;99.90
1383;DHT22;685;47.196;11.880;2023-02-15T02:17:17;1.00;99.90
1383;DHT22;685;47.196;11.880;2023-02-15T02:20:15;1.00;99.90
1383;DHT22;685;47.196;11.880;2023-02-15T02:23:15;0.90;99.90
1383;DHT22;685;47.196;11.880;2023-02-15T02:26:17;1.20;99.90
1383;DHT22;685;47.196;11.880;2023-02-15T02:29:25;1.20;99.90
1383;DHT22;685;47.196;11.880;2023-02-15T02:32:20;1.30;99.90
1383;DHT22;685;47.196;11.880;2023-02-15T02:34:55;1.30;99.90
1383;DHT22;685;47.196;11.880;2023-02-15T02:37:30;1.30;99.90
1383;DHT22;685;47.196;11.880;2023-02-15T02:40:04;1.40;99.90
1383;DHT22;685;47.196;11.880;2023-02-15T02:42:40;1.50;99.90
1383;DHT22;685;47.196;11.880;2023-02-15T02:45:09;1.50;99.90
1383;DHT22;685;47.196;11.880;2023-02-15T02:47:41;1.50;99.90
1383;DHT22;685;47.196;11.880;2023-02-15T02:50:13;1.40;99.90
1383;DHT22;685;47.196;11.880;2023-02-15T02:52:42;1.40;99.90
1383;DHT22;685;47.196;11.880;2023-02-15T02:55:14;1.50;99.90
1383;DHT22;685;47.196;11.880;2023-02-15T02:57:48;1.60;99.90
1383;DHT22;685;47.196;11.880;2023-02-15T03:00:18;1.70;99.90
1383;DHT22;685;47.196;11.880;2023-02-15T03:02:47;1.60;99.90
1383;DHT22;685;47.196;11.880;2023-02-15T03:05:21;1.30;99.90
1383;DHT22;685;47.196;11.880;2023-02-15T03:07:50;1.40;99.90
1383;DHT22;685;47.196;11.880;2023-02-15T03:10:21;1.30;99.90
1383;DHT22;685;47.196;11.880;2023-02-15T03:12:49;1.20;99.90
1383;DHT22;685;47.196;11.880;2023-02-15T03:15:24;0.90;99.90
1383;DHT22;685;47.196;11.880;2023-02-15T03:17:54;0.70;99.90
1383;DHT22;685;47.196;11.880;2023-02-15T03:20:27;0.90;99.90
1383;DHT22;685;47.196;11.880;2023-02-15T03:22:58;1.00;99.90
1383;DHT22;685;47.196;11.880;2023-02-15T03:25:30;0.90;99.90
1383;DHT22;685;47.196;11.880;2023-02-15T03:28:01;1.00;99.90
1383;DHT22;685;47.196;11.880;2023-02-15T03:30:29;1.00;99.90
1383;DHT22;685;47.196;11.880;2023-02-15T03:32:59;1.00;99.90
1383;DHT22;685;47.196;11.880;2023-02-15T03:35:33;1.20;99.90
1383;DHT22;685;47.196;11.880;2023-02-15T03:38:03;1.20;99.90
1383;DHT22;685;47.196;11.880;2023-02-15T03:40:36;1.00;99.90
1383;DHT22;685;47.196;11.880;2023-02-15T03:43:25;1.10;99.90
1383;DHT22;685;47.196;11.880;2023-02-15T03:46:05;1.00;99.90
1383;DHT22;685;47.196;11.880;2023-02-15T03:48:36;1.00;99.90
1383;DHT22;685;47.196;11.880;2023-02-15T03:51:09;1.00;99.90
1383;DHT22;685;47.196;11.880;2023-02-15T03:53:56;1.00;99.90
1383;DHT22;685;47.196;11.880;2023-02-15T03:56:24;0.90;99.90
1383;DHT22;685;47.196;11.880;2023-02-15T03:58:51;1.20;99.90
1383;DHT22;685;47.196;11.880;2023-02-15T04:01:39;1.10;99.90
1383;DHT22;685;47.196;11.880;2023-02-15T04:04:28;1.00;99.90
1383;DHT22;685;47.196;11.880;2023-02-15T04:06:58;1.10;99.90
1383;DHT22;685;47.196;11.880;2023-02-15T04:09:25;1.10;99.90
1383;DHT22;685;47.196;11.880;2023-02-15T04:12:10;1.30;99.90
1383;DHT22;685;47.196;11.880;2023-02-15T04:14:37;1.30;99.90
1383;DHT22;685;47.196;11.880;2023-02-15T04:17:21;1.30;99.90
1383;DHT22;685;47.196;11.880;2023-02-15T04:19:48;0.90;99.90
1383;DHT22;685;47.196;11.880;2023-02-15T04:22:34;0.80;99.90
1383;DHT22;685;47.196;11.880;2023-02-15T04:25:19;0.90;99.90
1383;DHT22;685;47.196;11.880;2023-02-15T04:27:48;0.90;99.90
1383;DHT22;685;47.196;11.880;2023-02-15T04:30:18;0.90;99.90
1383;DHT22;685;47.196;11.880;2023-02-15T04:32:45;0.80;99.90
1383;DHT22;685;47.196;11.880;2023-02-15T04:35:13;0.50;99.90
1383;DHT22;685;47.196;11.880;2023-02-15T04:37:42;0.80;99.90
1383;DHT22;685;47.196;11.880;2023-02-15T04:40:11;1.00;99.90
1383;DHT22;685;47.196;11.880;2023-02-15T04:42:38;1.00;99.90
1383;DHT22;685;47.196;11.880;2023-02-15T04:45:06;0.90;99.90
1383;DHT22;685;47.196;11.880;2023-02-15T04:47:33;0.70;99.90
1383;DHT22;685;47.196;11.880;2023-02-15T04:50:01;0.40;99.90
1383;DHT22;685;47.196;11.880;2023-02-15T04:52:28;0.50;99.90
1383;DHT22;685;47.196;11.880;2023-02-15T04:54:56;0.80;99.90
1383;DHT22;685;47.196;11.880;2023-02-15T04:57:23;1.10;99.90
1383;DHT22;685;47.196;11.880;2023-02-15T04:59:50;1.20;99.90
1383;DHT22;685;47.196;11.880;2023-02-15T05:02:17;1.00;99.90
1383;DHT22;685;47.196;11.880;2023-02-15T05:04:44;0.90;99.90
1383;DHT22;685;47.196;11.880;2023-02-15T05:07:11;0.90;99.90
1383;DHT22;685;47.196;11.880;2023-02-15T05:09:37;0.90;99.90
1383;DHT22;685;47.196;11.880;2023-02-15T05:12:06;1.00;99.90
1383;DHT22;685;47.196;11.880;2023-02-15T05:14:33;0.80;99.90
1383;DHT22;685;47.196;11.880;2023-02-15T05:17:00;1.00;99.90
1383;DHT22;685;47.196;11.880;2023-02-15T05:19:28;1.00;99.90
1383;DHT22;685;47.196;11.880;2023-02-15T05:21:55;1.00;99.90
1383;DHT22;685;47.196;11.880;2023-02-15T05:24:22;1.00;99.90
1383;DHT22;685;47.196;11.880;2023-02-15T05:27:16;0.80;99.90
1383;DHT22;685;47.196;11.880;2023-02-15T05:30:01;0.90;99.90
1383;DHT22;685;47.196;11.880;2023-02-15T05:32:27;0.80;99.90
1383;DHT22;685;47.196;11.880;2023-02-15T05:34:54;0.90;99.90
1383;DHT22;685;47.196;11.880;2023-02-15T05:37:21;0.90;99.90
1383;DHT22;685;47.196;11.880;2023-02-15T05:39:48;0.90;99.90
1383;DHT22;685;47.196;11.880;2023-02-15T05:42:16;0.90;99.90
1383;DHT22;685;47.196;11.880;2023-02-15T05:44:43;0.90;99.90
1383;DHT22;685;47.196;11.880;2023-02-15T05:47:10;0.90;99.90
1383;DHT22;685;47.196;11.880;2023-02-15T05:49:37;0.90;99.90
1383;DHT22;685;47.196;11.880;2023-02-15T05:52:04;0.90;99.90
1383;DHT22;685;47.196;11.880;2023-02-15T05:54:31;0.80;99.90
1383;DHT22;685;47.196;11.880;2023-02-15T05:56:58;0.90;99.90
1383;DHT22;685;47.196;11.880;2023-02-15T05:59:26;0.90;99.90
1383;DHT22;685;47.196;11.880;2023-02-15T06:01:53;0.90;99.90
1383;DHT22;685;47.196;11.880;2023-02-15T06:04:20;0.90;99.90
1383;DHT22;685;47.196;11.880;2023-02-15T06:06:46;0.70;99.90
1383;DHT22;685;47.196;11.880;2023-02-15T06:09:14;0.70;99.90
1383;DHT22;685;47.196;11.880;2023-02-15T06:11:43;0.60;99.90
1383;DHT22;685;47.196;11.880;2023-02-15T06:14:10;0.70;99.90
1383;DHT22;685;47.196;11.880;2023-02-15T06:16:39;0.60;99.90
1383;DHT22;685;47.196;11.880;2023-02-15T06:19:05;0.70;99.90
1383;DHT22;685;47.196;11.880;2023-02-15T06:21:32;0.60;99.90
1383;DHT22;685;47.196;11.880;2023-02-15T06:23:59;0.70;99.90
1383;DHT22;685;47.196;11.880;2023-02-15T06:26:26;0.50;99.90
1383;DHT22;685;47.196;11.880;2023-02-15T06:28:53;0.30;99.90
1383;DHT22;685;47.196;11.880;2023-02-15T06:31:20;0.10;99.90
1383;DHT22;685;47.196;11.880;2023-02-15T06:33:48;0.00;99.90
1383;DHT22;685;47.196;11.880;2023-02-15T06:36:15;0.20;99.90
1383;DHT22;685;47.196;11.880;2023-02-15T06:38:42;0.20;99.90
1383;DHT22;685;47.196;11.880;2023-02-15T06:41:08;0.30;99.90
1383;DHT22;685;47.196;11.880;2023-02-15T06:43:35;0.40;99.90
1383;DHT22;685;47.196;11.880;2023-02-15T06:46:02;0.50;99.90
1383;DHT22;685;47.196;11.880;2023-02-15T06:48:29;0.60;99.90
1383;DHT22;685;47.196;11.880;2023-02-15T06:50:57;0.60;99.90
1383;DHT22;685;47.196;11.880;2023-02-15T06:53:24;0.60;99.90
1383;DHT22;685;47.196;11.880;2023-02-15T06:55:51;0.70;99.90
1383;DHT22;685;47.196;11.880;2023-02-15T06:58:18;0.60;99.90
1383;DHT22;685;47.196;11.880;2023-02-15T07:00:45;0.60;99.90
1383;DHT22;685;47.196;11.880;2023-02-15T07:03:13;0.50;99.90
1383;DHT22;685;47.196;11.880;2023-02-15T07:05:41;0.50;99.90
1383;DHT22;685;47.196;11.880;2023-02-15T07:08:10;0.40;99.90
1383;DHT22;685;47.196;11.880;2023-02-15T07:10:37;0.40;99.90
1383;DHT22;685;47.196;11.880;2023-02-15T07:13:04;0.30;99.90
1383;DHT22;685;47.196;11.880;2023-02-15T07:15:30;0.20;99.90
1383;DHT22;685;47.196;11.880;2023-02-15T07:17:57;0.00;99.90
1383;DHT22;685;47.196;11.880;2023-02-15T07:20:24;0.30;99.90
1383;DHT22;685;47.196;11.880;2023-02-15T07:22:51;0.50;99.90
1383;DHT22;685;47.196;11.880;2023-02-15T07:25:20;0.60;99.90
1383;DHT22;685;47.196;11.880;2023-02-15T07:27:47;0.70;99.90
1383;DHT22;685;47.196;11.880;2023-02-15T07:30:16;0.60;99.90
1383;DHT22;685;47.196;11.880;2023-02-15T07:32:43;0.60;99.90
1383;DHT22;685;47.196;11.880;2023-02-15T07:35:24;0.60;99.90
1383;DHT22;685;47.196;11.880;2023-02-15T07:37:51;0.60;99.90
1383;DHT22;685;47.196;11.880;2023-02-15T07:40:20;0.60;99.90
1383;DHT22;685;47.196;11.880;2023-02-15T07:42:49;0.70;99.90
1383;DHT22;685;47.196;11.880;2023-02-15T07:45:17;0.70;99.90
1383;DHT22;685;47.196;11.880;2023-02-15T07:47:44;0.60;99.90
1383;DHT22;685;47.196;11.880;2023-02-15T07:50:10;0.60;99.90
1383;DHT22;685;47.196;11.880;2023-02-15T07:52:37;0.60;99.90
1383;DHT22;685;47.196;11.880;2023-02-15T07:55:05;0.60;99.90
1383;DHT22;685;47.196;11.880;2023-02-15T07:57:33;0.50;99.90
1383;DHT22;685;47.196;11.880;2023-02-15T08:00:00;0.50;99.90
1383;DHT22;685;47.196;11.880;2023-02-15T08:02:27;0.60;99.90
1383;DHT22;685;47.196;11.880;2023-02-15T08:04:55;0.60;99.90
1383;DHT22;685;47.196;11.880;2023-02-15T08:07:22;0.60;99.90
1383;DHT22;685;47.196;11.880;2023-02-15T08:09:49;0.50;99.90
1383;DHT22;685;47.196;11.880;2023-02-15T08:12:16;0.40;99.90
1383;DHT22;685;47.196;11.880;2023-02-15T08:14:44;0.40;99.90
1383;DHT22;685;47.196;11.880;2023-02-15T08:17:11;0.30;99.90
1383;DHT22;685;47.196;11.880;2023-02-15T08:19:38;0.30;99.90
1383;DHT22;685;47.196;11.880;2023-02-15T08:22:06;0.20;99.90
1383;DHT22;685;47.196;11.880;2023-02-15T08:24:36;0.00;99.90
1383;DHT22;685;47.196;11.880;2023-02-15T08:27:04;0.00;99.90
1383;DHT22;685;47.196;11.880;2023-02-15T08:29:31;0.00;99.90
1383;DHT22;685;47.196;11.880;2023-02-15T08:32:02;0.10;99.90
1383;DHT22;685;47.196;11.880;2023-02-15T08:34:31;0.30;99.90
1383;DHT22;685;47.196;11.880;2023-02-15T08:36:58;0.50;99.90
1383;DHT22;685;47.196;11.880;2023-02-15T08:39:25;0.60;99.90
1383;DHT22;685;47.196;11.880;2023-02-15T08:41:52;0.60;99.90
1383;DHT22;685;47.196;11.880;2023-02-15T08:44:19;0.70;99.90
1383;DHT22;685;47.196;11.880;2023-02-15T08:46:48;0.80;99.90
1383;DHT22;685;47.196;11.880;2023-02-15T08:49:18;0.90;99.90
1383;DHT22;685;47.196;11.880;2023-02-15T08:51:46;0.90;99.90
1383;DHT22;685;47.196;11.880;2023-02-15T08:54:14;0.80;99.90
1383;DHT22;685;47.196;11.880;2023-02-15T08:56:43;0.70;99.90
1383;DHT22;685;47.196;11.880;2023-02-15T08:59:13;0.70;99.90
1383;DHT22;685;47.196;11.880;2023-02-15T09:01:40;0.70;99.90
1383;DHT22;685;47.196;11.880;2023-02-15T09:04:08;0.80;99.90
1383;DHT22;685;47.196;11.880;2023-02-15T09:06:37;0.90;99.90
1383;DHT22;685;47.196;11.880;2023-02-15T09:09:04;0.90;99.90
1383;DHT22;685;47.196;11.880;2023-02-15T09:11:34;1.00;99.90
1383;DHT22;685;47.196;11.880;2023-02-15T09:14:03;1.00;99.90
1383;DHT22;685;47.196;11.880;2023-02-15T09:16:33;1.10;99.90
1383;DHT22;685;47.196;11.880;2023-02-15T09:19:00;1.10;99.90
1383;DHT22;685;47.196;11.880;2023-02-15T09:21:28;1.10;99.90
1383;DHT22;685;47.196;11.880;2023-02-15T09:23:58;1.10;99.90
1383;DHT22;685;47.196;11.880;2023-02-15T09:26:27;1.20;99.90
1383;DHT22;685;47.196;11.880;2023-02-15T09:28:56;1.40;99.90
1383;DHT22;685;47.196;11.880;2023-02-15T09:31:24;1.30;99.90
1383;DHT22;685;47.196;11.880;2023-02-15T09:33:51;1.20;99.90
1383;DHT22;685;47.196;11.880;2023-02-15T09:36:21;1.30;99.90
1383;DHT22;685;47.196;11.880;2023-02-15T09:38:54;1.50;99.90
1383;DHT22;685;47.196;11.880;2023-02-15T09:41:37;1.70;99.90
1383;DHT22;685;47.196;11.880;2023-02-15T09:44:12;1.80;99.90
1383;DHT22;685;47.196;11.880;2023-02-15T09:46:55;2.00;99.90
1383;DHT22;685;47.196;11.880;2023-02-15T09:49:30;1.90;99.90
1383;DHT22;685;47.196;11.880;2023-02-15T09:52:14;2.00;99.90
1383;DHT22;685;47.196;11.880;2023-02-15T09:54:56;2.00;99.90
1383;DHT22;685;47.196;11.880;2023-02-15T09:57:36;2.10;99.90
1383;DHT22;685;47.196;11.880;2023-02-15T10:00:09;2.30;99.90
1383;DHT22;685;47.196;11.880;2023-02-15T10:03:03;2.40;99.90
1383;DHT22;685;47.196;11.880;2023-02-15T10:05:38;2.60;99.90
1383;DHT22;685;47.196;11.880;2023-02-15T10:08:33;2.60;99.90
1383;DHT22;685;47.196;11.880;2023-02-15T10:11:07;2.80;99.90
1383;DHT22;685;47.196;11.880;2023-02-15T10:14:03;3.00;99.90
1383;DHT22;685;47.196;11.880;2023-02-15T10:16:41;3.20;99.90
1383;DHT22;685;47.196;11.880;2023-02-15T10:19:14;3.30;99.90
1383;DHT22;685;47.196;11.880;2023-02-15T10:21:54;3.50;99.90
1383;DHT22;685;47.196;11.880;2023-02-15T10:27:19;3.80;99.90
1383;DHT22;685;47.196;11.880;2023-02-15T10:29:57;3.80;99.90
1383;DHT22;685;47.196;11.880;2023-02-15T10:32:29;4.00;99.90
1383;DHT22;685;47.196;11.880;2023-02-15T10:35:02;4.10;99.90
1383;DHT22;685;47.196;11.880;2023-02-15T10:37:46;4.20;99.90
1383;DHT22;685;47.196;11.880;2023-02-15T10:40:25;4.40;99.90
1383;DHT22;685;47.196;11.880;2023-02-15T10:43:09;4.40;99.90
1383;DHT22;685;47.196;11.880;2023-02-15T10:45:51;4.50;99.90
1383;DHT22;685;47.196;11.880;2023-02-15T10:48:47;4.50;99.90
1383;DHT22;685;47.196;11.880;2023-02-15T10:51:21;4.50;99.90
1383;DHT22;685;47.196;11.880;2023-02-15T10:54:04;4.50;99.90
1383;DHT22;685;47.196;11.880;2023-02-15T10:56:38;4.60;99.90
1383;DHT22;685;47.196;11.880;2023-02-15T10:59:22;4.70;99.90
1383;DHT22;685;47.196;11.880;2023-02-15T11:01:54;5.00;99.90
1383;DHT22;685;47.196;11.880;2023-02-15T11:04:39;5.10;99.90
1383;DHT22;685;47.196;11.880;2023-02-15T11:07:12;5.30;99.90
1383;DHT22;685;47.196;11.880;2023-02-15T11:09:46;5.20;99.90
1383;DHT22;685;47.196;11.880;2023-02-15T11:12:16;5.20;99.90
1383;DHT22;685;47.196;11.880;2023-02-15T11:14:50;5.20;99.90
1383;DHT22;685;47.196;11.880;2023-02-15T11:17:24;5.30;99.90
1383;DHT22;685;47.196;11.880;2023-02-15T11:19:59;5.30;99.90
1383;DHT22;685;47.196;11.880;2023-02-15T11:22:29;5.40;99.90
1383;DHT22;685;47.196;11.880;2023-02-15T11:24:58;5.30;99.90
1383;DHT22;685;47.196;11.880;2023-02-15T11:27:29;5.30;99.90
1383;DHT22;685;47.196;11.880;2023-02-15T11:30:00;5.50;99.90
1383;DHT22;685;47.196;11.880;2023-02-15T11:32:33;5.70;99.90
1383;DHT22;685;47.196;11.880;2023-02-15T11:35:03;5.60;99.90
1383;DHT22;685;47.196;11.880;2023-02-15T11:37:37;5.70;99.90
1383;DHT22;685;47.196;11.880;2023-02-15T11:40:20;5.90;99.90
1383;DHT22;685;47.196;11.880;2023-02-15T11:42:51;6.10;99.90
1383;DHT22;685;47.196;11.880;2023-02-15T11:45:25;6.00;99.90
1383;DHT22;685;47.196;11.880;2023-02-15T11:47:55;5.90;99.90
1383;DHT22;685;47.196;11.880;2023-02-15T11:50:24;6.00;99.90
1383;DHT22;685;47.196;11.880;2023-02-15T11:52:52;6.00;99.90
1383;DHT22;685;47.196;11.880;2023-02-15T11:55:23;6.00;99.90
1383;DHT22;685;47.196;11.880;2023-02-15T11:57:54;6.10;99.90
1383;DHT22;685;47.196;11.880;2023-02-15T12:00:29;6.20;99.90
1383;DHT22;685;47.196;11.880;2023-02-15T12:03:07;6.20;99.90
1383;DHT22;685;47.196;11.880;2023-02-15T12:05:40;6.20;99.90
1383;DHT22;685;47.196;11.880;2023-02-15T12:08:13;6.30;99.90
1383;DHT22;685;47.196;11.880;2023-02-15T12:10:46;6.40;99.90
1383;DHT22;685;47.196;11.880;2023-02-15T12:13:18;6.50;99.90
1383;DHT22;685;47.196;11.880;2023-02-15T12:15:47;6.70;99.90
1383;DHT22;685;47.196;11.880;2023-02-15T12:18:26;6.80;99.90
1383;DHT22;685;47.196;11.880;2023-02-15T12:20:58;7.00;99.90
1383;DHT22;685;47.196;11.880;2023-02-15T12:23:28;6.90;99.90
1383;DHT22;685;47.196;11.880;2023-02-15T12:25:56;7.00;99.90
1383;DHT22;685;47.196;11.880;2023-02-15T12:28:29;7.00;99.90
1383;DHT22;685;47.196;11.880;2023-02-15T12:30:59;7.00;99.90
1383;DHT22;685;47.196;11.880;2023-02-15T12:33:30;7.00;99.90
1383;DHT22;685;47.196;11.880;2023-02-15T12:36:02;7.10;99.90
1383;DHT22;685;47.196;11.880;2023-02-15T12:38:30;7.20;99.90
1383;DHT22;685;47.196;11.880;2023-02-15T12:40:58;7.10;99.90
1383;DHT22;685;47.196;11.880;2023-02-15T12:43:27;7.40;99.90
1383;DHT22;685;47.196;11.880;2023-02-15T12:46:14;7.60;99.90
1383;DHT22;685;47.196;11.880;2023-02-15T12:48:47;7.60;99.90
1383;DHT22;685;47.196;11.880;2023-02-15T12:51:18;7.70;99.90
1383;DHT22;685;47.196;11.880;2023-02-15T12:53:44;7.80;99.90
1383;DHT22;685;47.196;11.880;2023-02-15T12:56:11;7.70;99.90
1383;DHT22;685;47.196;11.880;2023-02-15T12:58:39;7.60;99.90
1383;DHT22;685;47.196;11.880;2023-02-15T13:01:11;7.60;99.90
1383;DHT22;685;47.196;11.880;2023-02-15T13:03:58;7.60;99.90
1383;DHT22;685;47.196;11.880;2023-02-15T13:06:26;7.50;99.90
1383;DHT22;685;47.196;11.880;2023-02-15T13:08:54;7.50;99.90
1383;DHT22;685;47.196;11.880;2023-02-15T13:11:26;7.60;99.90
1383;DHT22;685;47.196;11.880;2023-02-15T13:13:55;7.90;99.90
1383;DHT22;685;47.196;11.880;2023-02-15T13:16:29;8.00;99.90
1383;DHT22;685;47.196;11.880;2023-02-15T13:19:02;7.90;99.90
1383;DHT22;685;47.196;11.880;2023-02-15T13:21:32;7.70;99.90
1383;DHT22;685;47.196;11.880;2023-02-15T13:24:04;8.00;99.90
1383;DHT22;685;47.196;11.880;2023-02-15T13:26:32;8.10;99.90
1383;DHT22;685;47.196;11.880;2023-02-15T13:29:05;8.10;99.90
1383;DHT22;685;47.196;11.880;2023-02-15T13:31:34;8.20;99.90
1383;DHT22;685;47.196;11.880;2023-02-15T13:34:09;8.10;99.90
1383;DHT22;685;47.196;11.880;2023-02-15T13:36:46;7.90;99.90
1383;DHT22;685;47.196;11.880;2023-02-15T13:39:23;7.70;99.90
1383;DHT22;685;47.196;11.880;2023-02-15T13:41:58;7.80;99.90
1383;DHT22;685;47.196;11.880;2023-02-15T13:44:50;7.80;99.90
1383;DHT22;685;47.196;11.880;2023-02-15T13:47:23;7.90;99.90
1383;DHT22;685;47.196;11.880;2023-02-15T13:50:05;8.00;99.90
1383;DHT22;685;47.196;11.880;2023-02-15T13:52:41;8.00;99.90
1383;DHT22;685;47.196;11.880;2023-02-15T13:55:31;8.00;99.90
1383;DHT22;685;47.196;11.880;2023-02-15T13:58:17;8.10;99.90
1383;DHT22;685;47.196;11.880;2023-02-15T14:00:52;8.10;99.90
1383;DHT22;685;47.196;11.880;2023-02-15T14:06:28;8.20;99.90
1383;DHT22;685;47.196;11.880;2023-02-15T14:09:10;8.10;99.90
1383;DHT22;685;47.196;11.880;2023-02-15T14:11:43;8.20;99.90
1383;DHT22;685;47.196;11.880;2023-02-15T14:14:45;8.00;99.90
1383;DHT22;685;47.196;11.880;2023-02-15T14:17:19;8.00;99.90
1383;DHT22;685;47.196;11.880;2023-02-15T14:19:53;8.00;99.90
1383;DHT22;685;47.196;11.880;2023-02-15T14:22:28;8.00;99.90
1383;DHT22;685;47.196;11.880;2023-02-15T14:25:05;8.00;99.90
1383;DHT22;685;47.196;11.880;2023-02-15T14:27:48;7.90;99.90
1383;DHT22;685;47.196;11.880;2023-02-15T14:30:20;7.80;99.90
1383;DHT22;685;47.196;11.880;2023-02-15T14:32:50;7.80;99.90
1383;DHT22;685;47.196;11.880;2023-02-15T14:35:21;7.80;99.90
1383;DHT22;685;47.196;11.880;2023-02-15T14:37:54;7.90;99.90
1383;DHT22;685;47.196;11.880;2023-02-15T14:40:32;8.10;99.90
1383;DHT22;685;47.196;11.880;2023-02-15T14:43:25;8.20;99.90
1383;DHT22;685;47.196;11.880;2023-02-15T14:45:55;8.10;99.90
1383;DHT22;685;47.196;11.880;2023-02-15T14:48:30;8.00;99.90
1383;DHT22;685;47.196;11.880;2023-02-15T14:50:57;7.90;99.90
1383;DHT22;685;47.196;11.880;2023-02-15T14:53:36;7.80;99.90
1383;DHT22;685;47.196;11.880;2023-02-15T14:56:24;7.70;99.90
1383;DHT22;685;47.196;11.880;2023-02-15T14:59:00;7.50;99.90
1383;DHT22;685;47.196;11.880;2023-02-15T15:01:29;7.50;99.90
1383;DHT22;685;47.196;11.880;2023-02-15T15:03:59;7.40;99.90
1383;DHT22;685;47.196;11.880;2023-02-15T15:06:29;7.40;99.90
1383;DHT22;685;47.196;11.880;2023-02-15T15:09:00;7.50;99.90
1383;DHT22;685;47.196;11.880;2023-02-15T15:11:45;7.40;99.90
1383;DHT22;685;47.196;11.880;2023-02-15T15:14:39;7.30;99.90
1383;DHT22;685;47.196;11.880;2023-02-15T15:17:09;7.30;99.90
1383;DHT22;685;47.196;11.880;2023-02-15T15:20:13;7.20;99.90
1383;DHT22;685;47.196;11.880;2023-02-15T15:22:42;7.10;99.90
1383;DHT22;685;47.196;11.880;2023-02-15T15:27:54;7.10;99.90
1383;DHT22;685;47.196;11.880;2023-02-15T15:40:24;7.20;99.90
1383;DHT22;685;47.196;11.880;2023-02-15T15:46:07;7.30;99.90
1383;DHT22;685;47.196;11.880;2023-02-15T15:48:37;7.10;99.90
1383;DHT22;685;47.196;11.880;2023-02-15T15:51:10;6.90;99.90
1383;DHT22;685;47.196;11.880;2023-02-15T15:53:40;6.80;99.90
1383;DHT22;685;47.196;11.880;2023-02-15T15:56:15;6.80;99.90
1383;DHT22;685;47.196;11.880;2023-02-15T15:58:46;6.60;99.90
1383;DHT22;685;47.196;11.880;2023-02-15T16:01:15;6.40;99.90
1383;DHT22;685;47.196;11.880;2023-02-15T16:03:51;6.30;99.90
1383;DHT22;685;47.196;11.880;2023-02-15T16:06:33;6.30;99.90
1383;DHT22;685;47.196;11.880;2023-02-15T16:09:11;6.40;99.90
1383;DHT22;685;47.196;11.880;2023-02-15T16:11:40;6.40;99.90
1383;DHT22;685;47.196;11.880;2023-02-15T16:14:14;6.10;99.90
1383;DHT22;685;47.196;11.880;2023-02-15T16:16:47;6.10;99.90
1383;DHT22;685;47.196;11.880;2023-02-15T16:19:19;5.90;99.90
1383;DHT22;685;47.196;11.880;2023-02-15T16:21:47;5.90;99.90
1383;DHT22;685;47.196;11.880;2023-02-15T16:24:35;5.80;99.90
1383;DHT22;685;47.196;11.880;2023-02-15T16:27:35;5.80;99.90
1383;DHT22;685;47.196;11.880;2023-02-15T16:30:23;5.70;99.90
1383;DHT22;685;47.196;11.880;2023-02-15T16:32:53;5.80;99.90
1383;DHT22;685;47.196;11.880;2023-02-15T16:35:21;5.70;99.90
1383;DHT22;685;47.196;11.880;2023-02-15T16:37:48;5.70;99.90
1383;DHT22;685;47.196;11.880;2023-02-15T16:40:38;5.60;99.90
1383;DHT22;685;47.196;11.880;2023-02-15T16:43:15;5.60;99.90
1383;DHT22;685;47.196;11.880;2023-02-15T16:45:42;5.70;99.90
1383;DHT22;685;47.196;11.880;2023-02-15T16:48:16;5.60;99.90
1383;DHT22;685;47.196;11.880;2023-02-15T16:50:48;5.50;99.90
1383;DHT22;685;47.196;11.880;2023-02-15T16:53:20;5.40;99.90
1383;DHT22;685;47.196;11.880;2023-02-15T16:55:50;5.30;99.90
1383;DHT22;685;47.196;11.880;2023-02-15T16:58:25;5.30;99.90
1383;DHT22;685;47.196;11.880;2023-02-15T17:00:56;5.30;99.90
1383;DHT22;685;47.196;11.880;2023-02-15T17:03:25;5.40;99.90
1383;DHT22;685;47.196;11.880;2023-02-15T17:05:53;5.40;99.90
1383;DHT22;685;47.196;11.880;2023-02-15T17:08:25;5.40;99.90
1383;DHT22;685;47.196;11.880;2023-02-15T17:11:08;5.30;99.90